sensor_id;sensor_type;location;lat;lon;timestamp;temperature;humidity
14182;DHT22;7171;50.936;6.764;2022-12-10T00:01:16;3.00;99.90
14182;DHT22;7171;50.936;6.764;2022-12-10T00:03:44;3.00;99.90
14182;DHT22;7171;50.936;6.764;2022-12-10T00:06:13;3.00;99.90
14182;DHT22;7171;50.936;6.764;2022-12-10T00:08:41;3.00;99.90
14182;DHT22;7171;50.936;6.764;2022-12-10T00:11:10;3.00;99.90
14182;DHT22;7171;50.936;6.764;2022-12-10T00:13:38;2.90;99.90
14182;DHT22;7171;50.936;6.764;2022-12-10T00:16:07;2.90;99.90
14182;DHT22;7171;50.936;6.764;2022-12-10T00:18:35;2.90;99.90
14182;DHT22;7171;50.936;6.764;2022-12-10T00:21:03;2.90;99.90
14182;DHT22;7171;50.936;6.764;2022-12-10T00:23:31;2.90;99.90
14182;DHT22;7171;50.936;6.764;2022-12-10T00:26:02;2.90;99.90
14182;DHT22;7171;50.936;6.764;2022-12-10T00:28:29;2.80;99.90
14182;DHT22;7171;50.936;6.764;2022-12-10T00:31:03;2.80;99.90
14182;DHT22;7171;50.936;6.764;2022-12-10T00:33:30;2.80;99.90
14182;DHT22;7171;50.936;6.764;2022-12-10T00:36:01;2.80;99.90
14182;DHT22;7171;50.936;6.764;2022-12-10T00:38:28;2.70;99.90
14182;DHT22;7171;50.936;6.764;2022-12-10T00:40:56;2.70;99.90
14182;DHT22;7171;50.936;6.764;2022-12-10T00:43:23;2.70;99.90
14182;DHT22;7171;50.936;6.764;2022-12-10T00:45:50;2.60;99.90
14182;DHT22;7171;50.936;6.764;2022-12-10T00:48:16;2.60;99.90
14182;DHT22;7171;50.936;6.764;2022-12-10T00:50:43;2.60;99.90
14182;DHT22;7171;50.936;6.764;2022-12-10T00:53:10;2.50;99.90
14182;DHT22;7171;50.936;6.764;2022-12-10T00:55:37;2.50;99.90
14182;DHT22;7171;50.936;6.764;2022-12-10T00:58:05;2.50;99.90
14182;DHT22;7171;50.936;6.764;2022-12-10T01:00:31;2.40;99.90
14182;DHT22;7171;50.936;6.764;2022-12-10T01:02:58;2.40;99.90
14182;DHT22;7171;50.936;6.764;2022-12-10T01:05:25;2.40;99.90
14182;DHT22;7171;50.936;6.764;2022-12-10T01:07:52;2.40;99.90
14182;DHT22;7171;50.936;6.764;2022-12-10T01:10:19;2.30;99.90
14182;DHT22;7171;50.936;6.764;2022-12-10T01:12:45;2.30;99.90
14182;DHT22;7171;50.936;6.764;2022-12-10T01:15:13;2.30;99.90
14182;DHT22;7171;50.936;6.764;2022-12-10T01:17:40;2.30;99.90
14182;DHT22;7171;50.936;6.764;2022-12-10T01:20:07;2.30;99.90
14182;DHT22;7171;50.936;6.764;2022-12-10T01:22:34;2.30;99.90
14182;DHT22;7171;50.936;6.764;2022-12-10T01:25:01;2.20;99.90
14182;DHT22;7171;50.936;6.764;2022-12-10T01:27:28;2.20;99.90
14182;DHT22;7171;50.936;6.764;2022-12-10T01:29:55;2.20;99.90
14182;DHT22;7171;50.936;6.764;2022-12-10T01:32:23;2.20;99.90
14182;DHT22;7171;50.936;6.764;2022-12-10T01:34:50;2.20;99.90
14182;DHT22;7171;50.936;6.764;2022-12-10T01:37:16;2.20;99.90
14182;DHT22;7171;50.936;6.764;2022-12-10T01:39:43;2.20;99.90
14182;DHT22;7171;50.936;6.764;2022-12-10T01:42:13;2.20;99.90
14182;DHT22;7171;50.936;6.764;2022-12-10T01:45:04;2.20;99.90
14182;DHT22;7171;50.936;6.764;2022-12-10T01:47:33;2.30;99.90
14182;DHT22;7171;50.936;6.764;2022-12-10T01:50:00;2.20;99.90
14182;DHT22;7171;50.936;6.764;2022-12-10T01:52:28;2.20;99.90
14182;DHT22;7171;50.936;6.764;2022-12-10T01:54:55;2.20;99.90
14182;DHT22;7171;50.936;6.764;2022-12-10T01:57:24;2.20;99.90
14182;DHT22;7171;50.936;6.764;2022-12-10T01:59:57;2.20;99.90
14182;DHT22;7171;50.936;6.764;2022-12-10T02:02:34;2.20;99.90
14182;DHT22;7171;50.936;6.764;2022-12-10T02:05:11;2.20;99.90
14182;DHT22;7171;50.936;6.764;2022-12-10T02:07:51;2.20;99.90
14182;DHT22;7171;50.936;6.764;2022-12-10T02:10:27;2.20;99.90
14182;DHT22;7171;50.936;6.764;2022-12-10T02:13:00;2.20;99.90
14182;DHT22;7171;50.936;6.764;2022-12-10T02:15:31;2.20;99.90
14182;DHT22;7171;50.936;6.764;2022-12-10T02:18:05;2.20;99.90
14182;DHT22;7171;50.936;6.764;2022-12-10T02:20:36;2.10;99.90
14182;DHT22;7171;50.936;6.764;2022-12-10T02:23:06;2.10;99.90
14182;DHT22;7171;50.936;6.764;2022-12-10T02:25:39;2.10;99.90
14182;DHT22;7171;50.936;6.764;2022-12-10T02:28:12;2.10;99.90
14182;DHT22;7171;50.936;6.764;2022-12-10T02:30:42;2.10;99.90
14182;DHT22;7171;50.936;6.764;2022-12-10T02:33:12;2.10;99.90
14182;DHT22;7171;50.936;6.764;2022-12-10T02:35:41;2.10;99.90
14182;DHT22;7171;50.936;6.764;2022-12-10T02:38:12;2.10;99.90
14182;DHT22;7171;50.936;6.764;2022-12-10T02:40:42;2.10;99.90
14182;DHT22;7171;50.936;6.764;2022-12-10T02:43:12;2.20;99.90
14182;DHT22;7171;50.936;6.764;2022-12-10T02:45:41;2.20;99.90
14182;DHT22;7171;50.936;6.764;2022-12-10T02:48:09;2.20;99.90
14182;DHT22;7171;50.936;6.764;2022-12-10T02:50:37;2.20;99.90
14182;DHT22;7171;50.936;6.764;2022-12-10T02:53:04;2.30;99.90
14182;DHT22;7171;50.936;6.764;2022-12-10T02:55:40;2.30;99.90
14182;DHT22;7171;50.936;6.764;2022-12-10T02:58:14;2.30;99.90
14182;DHT22;7171;50.936;6.764;2022-12-10T03:00:52;2.30;99.90
14182;DHT22;7171;50.936;6.764;2022-12-10T03:03:31;2.30;99.90
14182;DHT22;7171;50.936;6.764;2022-12-10T03:06:05;2.40;99.90
14182;DHT22;7171;50.936;6.764;2022-12-10T03:08:38;2.40;99.90
14182;DHT22;7171;50.936;6.764;2022-12-10T03:11:11;2.40;99.90
14182;DHT22;7171;50.936;6.764;2022-12-10T03:13:41;2.40;99.90
14182;DHT22;7171;50.936;6.764;2022-12-10T03:16:11;2.40;99.90
14182;DHT22;7171;50.936;6.764;2022-12-10T03:18:40;2.40;99.90
14182;DHT22;7171;50.936;6.764;2022-12-10T03:21:07;2.40;99.90
14182;DHT22;7171;50.936;6.764;2022-12-10T03:23:38;2.50;99.90
14182;DHT22;7171;50.936;6.764;2022-12-10T03:26:05;2.50;99.90
14182;DHT22;7171;50.936;6.764;2022-12-10T03:28:36;2.50;99.90
14182;DHT22;7171;50.936;6.764;2022-12-10T03:31:06;2.50;99.90
14182;DHT22;7171;50.936;6.764;2022-12-10T03:33:36;2.50;99.90
14182;DHT22;7171;50.936;6.764;2022-12-10T03:36:03;2.50;99.90
14182;DHT22;7171;50.936;6.764;2022-12-10T03:38:31;2.50;99.90
14182;DHT22;7171;50.936;6.764;2022-12-10T03:40:57;2.50;99.90
14182;DHT22;7171;50.936;6.764;2022-12-10T03:43:24;2.50;99.90
14182;DHT22;7171;50.936;6.764;2022-12-10T03:45:51;2.50;99.90
14182;DHT22;7171;50.936;6.764;2022-12-10T03:48:18;2.50;99.90
14182;DHT22;7171;50.936;6.764;2022-12-10T03:50:46;2.50;99.90
14182;DHT22;7171;50.936;6.764;2022-12-10T03:53:13;2.50;99.90
14182;DHT22;7171;50.936;6.764;2022-12-10T03:55:40;2.50;99.90
14182;DHT22;7171;50.936;6.764;2022-12-10T03:58:07;2.50;99.90
14182;DHT22;7171;50.936;6.764;2022-12-10T04:00:33;2.50;99.90
14182;DHT22;7171;50.936;6.764;2022-12-10T04:03:00;2.50;99.90
14182;DHT22;7171;50.936;6.764;2022-12-10T04:05:27;2.50;99.90
14182;DHT22;7171;50.936;6.764;2022-12-10T04:07:55;2.40;99.90
14182;DHT22;7171;50.936;6.764;2022-12-10T04:10:22;2.40;99.90
14182;DHT22;7171;50.936;6.764;2022-12-10T04:12:48;2.40;99.90
14182;DHT22;7171;50.936;6.764;2022-12-10T04:15:38;2.40;99.90
14182;DHT22;7171;50.936;6.764;2022-12-10T04:18:22;2.30;99.90
14182;DHT22;7171;50.936;6.764;2022-12-10T04:20:49;2.30;99.90
14182;DHT22;7171;50.936;6.764;2022-12-10T04:23:34;2.30;99.90
14182;DHT22;7171;50.936;6.764;2022-12-10T04:26:18;2.30;99.90
14182;DHT22;7171;50.936;6.764;2022-12-10T04:29:03;2.30;99.90
14182;DHT22;7171;50.936;6.764;2022-12-10T04:31:30;2.30;99.90
14182;DHT22;7171;50.936;6.764;2022-12-10T04:33:56;2.30;99.90
14182;DHT22;7171;50.936;6.764;2022-12-10T04:36:23;2.30;99.90
14182;DHT22;7171;50.936;6.764;2022-12-10T04:38:51;2.20;99.90
14182;DHT22;7171;50.936;6.764;2022-12-10T04:41:18;2.30;99.90
14182;DHT22;7171;50.936;6.764;2022-12-10T04:43:45;2.20;99.90
14182;DHT22;7171;50.936;6.764;2022-12-10T04:46:11;2.20;99.90
14182;DHT22;7171;50.936;6.764;2022-12-10T04:48:38;2.20;99.90
14182;DHT22;7171;50.936;6.764;2022-12-10T04:51:05;2.20;99.90
14182;DHT22;7171;50.936;6.764;2022-12-10T04:53:32;2.20;99.90
14182;DHT22;7171;50.936;6.764;2022-12-10T04:56:00;2.20;99.90
14182;DHT22;7171;50.936;6.764;2022-12-10T04:58:27;2.20;99.90
14182;DHT22;7171;50.936;6.764;2022-12-10T05:01:01;2.10;99.90
14182;DHT22;7171;50.936;6.764;2022-12-10T05:03:28;2.10;99.90
14182;DHT22;7171;50.936;6.764;2022-12-10T05:05:55;2.10;99.90
14182;DHT22;7171;50.936;6.764;2022-12-10T05:08:21;2.10;99.90
14182;DHT22;7171;50.936;6.764;2022-12-10T05:10:48;2.10;99.90
14182;DHT22;7171;50.936;6.764;2022-12-10T05:13:16;2.10;99.90
14182;DHT22;7171;50.936;6.764;2022-12-10T05:15:43;2.10;99.90
14182;DHT22;7171;50.936;6.764;2022-12-10T05:18:10;2.10;99.90
14182;DHT22;7171;50.936;6.764;2022-12-10T05:20:36;2.10;99.90
14182;DHT22;7171;50.936;6.764;2022-12-10T05:23:03;2.10;99.90
14182;DHT22;7171;50.936;6.764;2022-12-10T05:25:48;2.10;99.90
14182;DHT22;7171;50.936;6.764;2022-12-10T05:28:20;2.20;99.90
14182;DHT22;7171;50.936;6.764;2022-12-10T05:30:47;2.20;99.90
14182;DHT22;7171;50.936;6.764;2022-12-10T05:33:14;2.20;99.90
14182;DHT22;7171;50.936;6.764;2022-12-10T05:35:41;2.20;99.90
14182;DHT22;7171;50.936;6.764;2022-12-10T05:38:07;2.20;99.90
14182;DHT22;7171;50.936;6.764;2022-12-10T05:40:36;2.20;99.90
14182;DHT22;7171;50.936;6.764;2022-12-10T05:43:03;2.20;99.90
14182;DHT22;7171;50.936;6.764;2022-12-10T05:45:32;2.30;99.90
14182;DHT22;7171;50.936;6.764;2022-12-10T05:47:59;2.30;99.90
14182;DHT22;7171;50.936;6.764;2022-12-10T05:50:26;2.30;99.90
14182;DHT22;7171;50.936;6.764;2022-12-10T05:52:53;2.30;99.90
14182;DHT22;7171;50.936;6.764;2022-12-10T05:55:20;2.40;99.90
14182;DHT22;7171;50.936;6.764;2022-12-10T05:57:46;2.40;99.90
14182;DHT22;7171;50.936;6.764;2022-12-10T06:00:14;2.40;99.90
14182;DHT22;7171;50.936;6.764;2022-12-10T06:02:42;2.50;99.90
14182;DHT22;7171;50.936;6.764;2022-12-10T06:05:09;2.50;99.90
14182;DHT22;7171;50.936;6.764;2022-12-10T06:07:36;2.50;99.90
14182;DHT22;7171;50.936;6.764;2022-12-10T06:10:03;2.50;99.90
14182;DHT22;7171;50.936;6.764;2022-12-10T06:12:30;2.50;99.90
14182;DHT22;7171;50.936;6.764;2022-12-10T06:14:56;2.50;99.90
14182;DHT22;7171;50.936;6.764;2022-12-10T06:17:23;2.50;99.90
14182;DHT22;7171;50.936;6.764;2022-12-10T06:19:51;2.60;99.90
14182;DHT22;7171;50.936;6.764;2022-12-10T06:22:18;2.50;99.90
14182;DHT22;7171;50.936;6.764;2022-12-10T06:24:45;2.50;99.90
14182;DHT22;7171;50.936;6.764;2022-12-10T06:27:11;2.50;99.90
14182;DHT22;7171;50.936;6.764;2022-12-10T06:29:38;2.40;99.90
14182;DHT22;7171;50.936;6.764;2022-12-10T06:32:05;2.40;99.90
14182;DHT22;7171;50.936;6.764;2022-12-10T06:34:32;2.40;99.90
14182;DHT22;7171;50.936;6.764;2022-12-10T06:37:00;2.30;99.90
14182;DHT22;7171;50.936;6.764;2022-12-10T06:39:27;2.30;99.90
14182;DHT22;7171;50.936;6.764;2022-12-10T06:41:53;2.30;99.90
14182;DHT22;7171;50.936;6.764;2022-12-10T06:44:20;2.20;99.90
14182;DHT22;7171;50.936;6.764;2022-12-10T06:46:47;2.20;99.90
14182;DHT22;7171;50.936;6.764;2022-12-10T06:49:13;2.20;99.90
14182;DHT22;7171;50.936;6.764;2022-12-10T06:51:40;2.10;99.90
14182;DHT22;7171;50.936;6.764;2022-12-10T06:54:08;2.10;99.90
14182;DHT22;7171;50.936;6.764;2022-12-10T06:56:35;2.10;99.90
14182;DHT22;7171;50.936;6.764;2022-12-10T06:59:04;2.10;99.90
14182;DHT22;7171;50.936;6.764;2022-12-10T07:01:31;2.00;99.90
14182;DHT22;7171;50.936;6.764;2022-12-10T07:03:58;2.00;99.90
14182;DHT22;7171;50.936;6.764;2022-12-10T07:06:26;2.00;99.90
14182;DHT22;7171;50.936;6.764;2022-12-10T07:08:53;2.00;99.90
14182;DHT22;7171;50.936;6.764;2022-12-10T07:11:22;2.00;99.90
14182;DHT22;7171;50.936;6.764;2022-12-10T07:13:50;1.90;99.90
14182;DHT22;7171;50.936;6.764;2022-12-10T07:16:19;1.90;99.90
14182;DHT22;7171;50.936;6.764;2022-12-10T07:18:46;1.80;99.90
14182;DHT22;7171;50.936;6.764;2022-12-10T07:21:14;1.80;99.90
14182;DHT22;7171;50.936;6.764;2022-12-10T07:23:41;1.80;99.90
14182;DHT22;7171;50.936;6.764;2022-12-10T07:26:08;1.70;99.90
14182;DHT22;7171;50.936;6.764;2022-12-10T07:28:36;1.70;99.90
14182;DHT22;7171;50.936;6.764;2022-12-10T07:31:03;1.70;99.90
14182;DHT22;7171;50.936;6.764;2022-12-10T07:33:31;1.60;99.90
14182;DHT22;7171;50.936;6.764;2022-12-10T07:35:58;1.60;99.90
14182;DHT22;7171;50.936;6.764;2022-12-10T07:38:25;1.60;99.90
14182;DHT22;7171;50.936;6.764;2022-12-10T07:40:52;1.60;99.90
14182;DHT22;7171;50.936;6.764;2022-12-10T07:43:19;1.60;99.90
14182;DHT22;7171;50.936;6.764;2022-12-10T07:45:47;1.60;99.90
14182;DHT22;7171;50.936;6.764;2022-12-10T07:48:14;1.60;99.90
14182;DHT22;7171;50.936;6.764;2022-12-10T07:50:40;1.60;99.90
14182;DHT22;7171;50.936;6.764;2022-12-10T07:53:07;1.60;99.90
14182;DHT22;7171;50.936;6.764;2022-12-10T07:55:34;1.60;99.90
14182;DHT22;7171;50.936;6.764;2022-12-10T07:58:01;1.60;99.90
14182;DHT22;7171;50.936;6.764;2022-12-10T08:00:27;1.60;99.90
14182;DHT22;7171;50.936;6.764;2022-12-10T08:02:55;1.60;99.90
14182;DHT22;7171;50.936;6.764;2022-12-10T08:05:22;1.60;99.90
14182;DHT22;7171;50.936;6.764;2022-12-10T08:07:49;1.60;99.90
14182;DHT22;7171;50.936;6.764;2022-12-10T08:10:15;1.60;99.90
14182;DHT22;7171;50.936;6.764;2022-12-10T08:12:42;1.60;99.90
14182;DHT22;7171;50.936;6.764;2022-12-10T08:15:09;1.60;99.90
14182;DHT22;7171;50.936;6.764;2022-12-10T08:17:36;1.60;99.90
14182;DHT22;7171;50.936;6.764;2022-12-10T08:20:11;1.60;99.90
14182;DHT22;7171;50.936;6.764;2022-12-10T08:22:38;1.60;99.90
14182;DHT22;7171;50.936;6.764;2022-12-10T08:25:06;1.60;99.90
14182;DHT22;7171;50.936;6.764;2022-12-10T08:27:33;1.60;99.90
14182;DHT22;7171;50.936;6.764;2022-12-10T08:29:59;1.60;99.90
14182;DHT22;7171;50.936;6.764;2022-12-10T08:32:26;1.70;99.90
14182;DHT22;7171;50.936;6.764;2022-12-10T08:34:53;1.70;99.90
14182;DHT22;7171;50.936;6.764;2022-12-10T08:37:21;1.80;99.90
14182;DHT22;7171;50.936;6.764;2022-12-10T08:39:48;1.80;99.90
14182;DHT22;7171;50.936;6.764;2022-12-10T08:42:15;1.80;99.90
14182;DHT22;7171;50.936;6.764;2022-12-10T08:44:42;1.90;99.90
14182;DHT22;7171;50.936;6.764;2022-12-10T08:47:08;1.90;99.90
14182;DHT22;7171;50.936;6.764;2022-12-10T08:49:35;1.90;99.90
14182;DHT22;7171;50.936;6.764;2022-12-10T08:52:02;2.00;99.90
14182;DHT22;7171;50.936;6.764;2022-12-10T08:54:30;2.00;99.90
14182;DHT22;7171;50.936;6.764;2022-12-10T08:56:57;2.00;99.90
14182;DHT22;7171;50.936;6.764;2022-12-10T08:59:24;2.10;99.90
14182;DHT22;7171;50.936;6.764;2022-12-10T09:01:51;2.10;99.90
14182;DHT22;7171;50.936;6.764;2022-12-10T09:04:18;2.10;99.90
14182;DHT22;7171;50.936;6.764;2022-12-10T09:06:45;2.20;99.90
14182;DHT22;7171;50.936;6.764;2022-12-10T09:09:11;2.20;99.90
14182;DHT22;7171;50.936;6.764;2022-12-10T09:11:39;2.20;99.90
14182;DHT22;7171;50.936;6.764;2022-12-10T09:14:06;2.20;99.90
14182;DHT22;7171;50.936;6.764;2022-12-10T09:16:35;2.20;99.90
14182;DHT22;7171;50.936;6.764;2022-12-10T09:19:03;2.30;99.90
14182;DHT22;7171;50.936;6.764;2022-12-10T09:21:31;2.30;99.90
14182;DHT22;7171;50.936;6.764;2022-12-10T09:23:58;2.30;99.90
14182;DHT22;7171;50.936;6.764;2022-12-10T09:26:25;2.30;99.90
14182;DHT22;7171;50.936;6.764;2022-12-10T09:28:54;2.30;99.90
14182;DHT22;7171;50.936;6.764;2022-12-10T09:31:23;2.30;99.90
14182;DHT22;7171;50.936;6.764;2022-12-10T09:33:51;2.30;99.90
14182;DHT22;7171;50.936;6.764;2022-12-10T09:36:19;2.30;99.90
14182;DHT22;7171;50.936;6.764;2022-12-10T09:38:47;2.30;99.90
14182;DHT22;7171;50.936;6.764;2022-12-10T09:41:33;2.30;99.90
14182;DHT22;7171;50.936;6.764;2022-12-10T09:44:08;2.30;99.90
14182;DHT22;7171;50.936;6.764;2022-12-10T09:46:47;2.30;99.90
14182;DHT22;7171;50.936;6.764;2022-12-10T09:49:22;2.20;99.90
14182;DHT22;7171;50.936;6.764;2022-12-10T09:51:55;2.20;99.90
14182;DHT22;7171;50.936;6.764;2022-12-10T09:54:25;2.20;99.90
14182;DHT22;7171;50.936;6.764;2022-12-10T09:56:54;2.20;99.90
14182;DHT22;7171;50.936;6.764;2022-12-10T09:59:25;2.20;99.90
14182;DHT22;7171;50.936;6.764;2022-12-10T10:02:02;2.20;99.90
14182;DHT22;7171;50.936;6.764;2022-12-10T10:04:29;2.20;99.90
14182;DHT22;7171;50.936;6.764;2022-12-10T10:06:56;2.20;99.90
14182;DHT22;7171;50.936;6.764;2022-12-10T10:09:24;2.20;99.90
14182;DHT22;7171;50.936;6.764;2022-12-10T10:11:51;2.20;99.90
14182;DHT22;7171;50.936;6.764;2022-12-10T10:14:24;2.20;99.90
14182;DHT22;7171;50.936;6.764;2022-12-10T10:16:54;2.20;99.90
14182;DHT22;7171;50.936;6.764;2022-12-10T10:19:26;2.20;99.90
14182;DHT22;7171;50.936;6.764;2022-12-10T10:21:53;2.20;99.90
14182;DHT22;7171;50.936;6.764;2022-12-10T10:24:22;2.20;99.90
14182;DHT22;7171;50.936;6.764;2022-12-10T10:26:51;2.20;99.90
14182;DHT22;7171;50.936;6.764;2022-12-10T10:29:20;2.20;99.90
14182;DHT22;7171;50.936;6.764;2022-12-10T10:32:11;2.20;99.90
14182;DHT22;7171;50.936;6.764;2022-12-10T10:34:39;2.20;99.90
14182;DHT22;7171;50.936;6.764;2022-12-10T10:37:11;2.20;99.90
14182;DHT22;7171;50.936;6.764;2022-12-10T10:39:40;2.20;99.90
14182;DHT22;7171;50.936;6.764;2022-12-10T10:42:26;2.20;99.90
14182;DHT22;7171;50.936;6.764;2022-12-10T10:44:54;2.20;99.90
14182;DHT22;7171;50.936;6.764;2022-12-10T10:47:27;2.20;99.90
14182;DHT22;7171;50.936;6.764;2022-12-10T10:49:54;2.10;99.90
14182;DHT22;7171;50.936;6.764;2022-12-10T10:52:21;2.10;99.90
14182;DHT22;7171;50.936;6.764;2022-12-10T10:54:49;2.10;99.90
14182;DHT22;7171;50.936;6.764;2022-12-10T10:57:21;2.10;99.90
14182;DHT22;7171;50.936;6.764;2022-12-10T10:59:52;2.20;99.90
14182;DHT22;7171;50.936;6.764;2022-12-10T11:02:23;2.20;99.90
14182;DHT22;7171;50.936;6.764;2022-12-10T11:04:54;2.20;99.90
14182;DHT22;7171;50.936;6.764;2022-12-10T11:07:33;2.20;99.90
14182;DHT22;7171;50.936;6.764;2022-12-10T11:10:00;2.20;99.90
14182;DHT22;7171;50.936;6.764;2022-12-10T11:12:33;2.20;99.90
14182;DHT22;7171;50.936;6.764;2022-12-10T11:15:00;2.20;99.90
14182;DHT22;7171;50.936;6.764;2022-12-10T11:17:27;2.30;99.90
14182;DHT22;7171;50.936;6.764;2022-12-10T11:19:58;2.30;99.90
14182;DHT22;7171;50.936;6.764;2022-12-10T11:22:28;2.30;99.90
14182;DHT22;7171;50.936;6.764;2022-12-10T11:24:55;2.40;99.90
14182;DHT22;7171;50.936;6.764;2022-12-10T11:27:37;2.40;99.90
14182;DHT22;7171;50.936;6.764;2022-12-10T11:30:08;2.40;99.90
14182;DHT22;7171;50.936;6.764;2022-12-10T11:32:50;2.50;99.90
14182;DHT22;7171;50.936;6.764;2022-12-10T11:35:29;2.50;99.90
14182;DHT22;7171;50.936;6.764;2022-12-10T11:38:05;2.60;99.90
14182;DHT22;7171;50.936;6.764;2022-12-10T11:40:42;2.60;99.90
14182;DHT22;7171;50.936;6.764;2022-12-10T11:46:07;2.70;99.90
14182;DHT22;7171;50.936;6.764;2022-12-10T11:48:48;2.80;99.90
14182;DHT22;7171;50.936;6.764;2022-12-10T11:51:26;2.80;99.90
14182;DHT22;7171;50.936;6.764;2022-12-10T11:54:06;2.90;99.90
14182;DHT22;7171;50.936;6.764;2022-12-10T11:56:40;2.90;99.90
14182;DHT22;7171;50.936;6.764;2022-12-10T11:59:17;2.90;99.90
14182;DHT22;7171;50.936;6.764;2022-12-10T12:01:59;3.00;99.90
14182;DHT22;7171;50.936;6.764;2022-12-10T12:04:33;3.00;99.90
14182;DHT22;7171;50.936;6.764;2022-12-10T12:07:25;3.00;99.90
14182;DHT22;7171;50.936;6.764;2022-12-10T12:12:59;3.00;99.90
14182;DHT22;7171;50.936;6.764;2022-12-10T12:15:29;3.00;99.90
14182;DHT22;7171;50.936;6.764;2022-12-10T12:18:01;3.00;99.90
14182;DHT22;7171;50.936;6.764;2022-12-10T12:20:32;3.00;99.90
14182;DHT22;7171;50.936;6.764;2022-12-10T12:23:05;3.00;99.90
14182;DHT22;7171;50.936;6.764;2022-12-10T12:25:38;2.90;99.90
14182;DHT22;7171;50.936;6.764;2022-12-10T12:28:11;3.00;99.90
14182;DHT22;7171;50.936;6.764;2022-12-10T12:30:41;2.90;99.90
14182;DHT22;7171;50.936;6.764;2022-12-10T12:33:13;2.90;99.90
14182;DHT22;7171;50.936;6.764;2022-12-10T12:35:46;2.90;99.90
14182;DHT22;7171;50.936;6.764;2022-12-10T12:38:28;2.90;99.90
14182;DHT22;7171;50.936;6.764;2022-12-10T12:41:00;2.90;99.90
14182;DHT22;7171;50.936;6.764;2022-12-10T12:43:37;2.90;99.90
14182;DHT22;7171;50.936;6.764;2022-12-10T12:46:12;2.90;99.90
14182;DHT22;7171;50.936;6.764;2022-12-10T12:48:45;2.90;99.90
14182;DHT22;7171;50.936;6.764;2022-12-10T12:51:19;2.90;99.90
14182;DHT22;7171;50.936;6.764;2022-12-10T12:53:49;3.00;99.90
14182;DHT22;7171;50.936;6.764;2022-12-10T12:56:23;3.00;99.90
14182;DHT22;7171;50.936;6.764;2022-12-10T12:59:01;3.00;99.90
14182;DHT22;7171;50.936;6.764;2022-12-10T13:01:34;3.00;99.90
14182;DHT22;7171;50.936;6.764;2022-12-10T13:04:05;3.00;99.90
14182;DHT22;7171;50.936;6.764;2022-12-10T13:06:34;3.00;99.90
14182;DHT22;7171;50.936;6.764;2022-12-10T13:09:25;3.00;99.90
14182;DHT22;7171;50.936;6.764;2022-12-10T13:12:18;3.00;99.90
14182;DHT22;7171;50.936;6.764;2022-12-10T13:15:00;3.00;99.90
14182;DHT22;7171;50.936;6.764;2022-12-10T13:17:32;3.00;99.90
14182;DHT22;7171;50.936;6.764;2022-12-10T13:20:31;3.00;99.90
14182;DHT22;7171;50.936;6.764;2022-12-10T13:22:59;3.00;99.90
14182;DHT22;7171;50.936;6.764;2022-12-10T13:25:58;3.00;99.90
14182;DHT22;7171;50.936;6.764;2022-12-10T13:28:31;3.00;99.90
14182;DHT22;7171;50.936;6.764;2022-12-10T13:31:22;3.00;99.90
14182;DHT22;7171;50.936;6.764;2022-12-10T13:34:22;3.00;99.90
14182;DHT22;7171;50.936;6.764;2022-12-10T13:37:06;3.00;99.90
14182;DHT22;7171;50.936;6.764;2022-12-10T13:39:34;3.00;99.90
14182;DHT22;7171;50.936;6.764;2022-12-10T13:42:28;3.00;99.90
14182;DHT22;7171;50.936;6.764;2022-12-10T13:45:31;3.10;99.90
14182;DHT22;7171;50.936;6.764;2022-12-10T13:48:30;3.10;99.90
14182;DHT22;7171;50.936;6.764;2022-12-10T13:51:07;3.10;99.90
14182;DHT22;7171;50.936;6.764;2022-12-10T13:53:44;3.10;99.90
14182;DHT22;7171;50.936;6.764;2022-12-10T13:56:20;3.20;99.90
14182;DHT22;7171;50.936;6.764;2022-12-10T13:59:04;3.20;99.90
14182;DHT22;7171;50.936;6.764;2022-12-10T14:01:38;3.20;99.90
14182;DHT22;7171;50.936;6.764;2022-12-10T14:04:20;3.20;99.90
14182;DHT22;7171;50.936;6.764;2022-12-10T14:06:52;3.20;99.90
14182;DHT22;7171;50.936;6.764;2022-12-10T14:09:22;3.20;99.90
14182;DHT22;7171;50.936;6.764;2022-12-10T14:11:55;3.20;99.90
14182;DHT22;7171;50.936;6.764;2022-12-10T14:14:29;3.20;99.90
14182;DHT22;7171;50.936;6.764;2022-12-10T14:17:00;3.30;99.90
14182;DHT22;7171;50.936;6.764;2022-12-10T14:19:28;3.30;99.90
14182;DHT22;7171;50.936;6.764;2022-12-10T14:21:56;3.30;99.90
14182;DHT22;7171;50.936;6.764;2022-12-10T14:24:31;3.30;99.90
14182;DHT22;7171;50.936;6.764;2022-12-10T14:27:00;3.30;99.90
14182;DHT22;7171;50.936;6.764;2022-12-10T14:29:29;3.40;99.90
14182;DHT22;7171;50.936;6.764;2022-12-10T14:31:56;3.40;99.90
14182;DHT22;7171;50.936;6.764;2022-12-10T14:34:26;3.40;99.90
14182;DHT22;7171;50.936;6.764;2022-12-10T14:36:55;3.40;99.90
14182;DHT22;7171;50.936;6.764;2022-12-10T14:39:26;3.40;99.90
14182;DHT22;7171;50.936;6.764;2022-12-10T14:41:56;3.40;99.90
14182;DHT22;7171;50.936;6.764;2022-12-10T14:44:24;3.50;99.90
14182;DHT22;7171;50.936;6.764;2022-12-10T14:47:03;3.50;99.90
14182;DHT22;7171;50.936;6.764;2022-12-10T14:49:29;3.50;99.90
14182;DHT22;7171;50.936;6.764;2022-12-10T14:51:56;3.50;99.90
14182;DHT22;7171;50.936;6.764;2022-12-10T14:54:26;3.50;99.90
14182;DHT22;7171;50.936;6.764;2022-12-10T14:56:54;3.50;99.90
14182;DHT22;7171;50.936;6.764;2022-12-10T14:59:24;3.50;99.90
14182;DHT22;7171;50.936;6.764;2022-12-10T15:01:58;3.50;99.90
14182;DHT22;7171;50.936;6.764;2022-12-10T15:04:31;3.50;99.90
14182;DHT22;7171;50.936;6.764;2022-12-10T15:07:05;3.60;99.90
14182;DHT22;7171;50.936;6.764;2022-12-10T15:09:34;3.60;99.90
14182;DHT22;7171;50.936;6.764;2022-12-10T15:12:01;3.60;99.90
14182;DHT22;7171;50.936;6.764;2022-12-10T15:14:29;3.60;99.90
14182;DHT22;7171;50.936;6.764;2022-12-10T15:16:58;3.60;99.90
14182;DHT22;7171;50.936;6.764;2022-12-10T15:19:31;3.60;99.90
14182;DHT22;7171;50.936;6.764;2022-12-10T15:22:01;3.60;99.90
14182;DHT22;7171;50.936;6.764;2022-12-10T15:24:36;3.60;99.90
14182;DHT22;7171;50.936;6.764;2022-12-10T15:27:15;3.60;99.90
14182;DHT22;7171;50.936;6.764;2022-12-10T15:29:42;3.60;99.90
14182;DHT22;7171;50.936;6.764;2022-12-10T15:32:13;3.60;99.90
14182;DHT22;7171;50.936;6.764;2022-12-10T15:34:43;3.60;99.90
14182;DHT22;7171;50.936;6.764;2022-12-10T15:37:20;3.60;99.90
14182;DHT22;7171;50.936;6.764;2022-12-10T15:39:50;3.60;99.90
14182;DHT22;7171;50.936;6.764;2022-12-10T15:42:38;3.60;99.90
14182;DHT22;7171;50.936;6.764;2022-12-10T15:45:19;3.60;99.90
14182;DHT22;7171;50.936;6.764;2022-12-10T15:47:48;3.50;99.90
14182;DHT22;7171;50.936;6.764;2022-12-10T15:50:14;3.40;99.90
14182;DHT22;7171;50.936;6.764;2022-12-10T15:52:41;3.30;99.90
14182;DHT22;7171;50.936;6.764;2022-12-10T15:55:11;3.20;99.90
14182;DHT22;7171;50.936;6.764;2022-12-10T15:57:40;3.10;99.90
14182;DHT22;7171;50.936;6.764;2022-12-10T16:00:15;3.00;99.90
14182;DHT22;7171;50.936;6.764;2022-12-10T16:02:47;2.90;99.90
14182;DHT22;7171;50.936;6.764;2022-12-10T16:05:16;2.90;99.90
14182;DHT22;7171;50.936;6.764;2022-12-10T16:07:45;2.80;99.90
14182;DHT22;7171;50.936;6.764;2022-12-10T16:10:14;2.80;99.90
14182;DHT22;7171;50.936;6.764;2022-12-10T16:12:42;2.80;99.90
14182;DHT22;7171;50.936;6.764;2022-12-10T16:15:16;2.70;99.90
14182;DHT22;7171;50.936;6.764;2022-12-10T16:17:43;2.70;99.90
14182;DHT22;7171;50.936;6.764;2022-12-10T16:20:19;2.60;99.90
14182;DHT22;7171;50.936;6.764;2022-12-10T16:22:47;2.50;99.90
14182;DHT22;7171;50.936;6.764;2022-12-10T16:25:15;2.50;99.90
14182;DHT22;7171;50.936;6.764;2022-12-10T16:27:41;2.50;99.90
14182;DHT22;7171;50.936;6.764;2022-12-10T16:30:14;2.50;99.90